sensor_id;sensor_type;location;lat;lon;timestamp;P1;durP1;ratioP1;P2;durP2;ratioP2
16033;SDS011;8121;51.418;6.998;2023-04-03T00:08:28;2.90;;;2.50;;
16033;SDS011;8121;51.418;6.998;2023-04-03T00:18:34;2.30;;;2.20;;
16033;SDS011;8121;51.418;6.998;2023-04-03T00:28:39;2.07;;;1.97;;
16033;SDS011;8121;51.418;6.998;2023-04-03T00:38:40;3.57;;;2.47;;
16033;SDS011;8121;51.418;6.998;2023-04-03T00:48:44;3.90;;;2.93;;
16033;SDS011;8121;51.418;6.998;2023-04-03T00:58:48;2.30;;;2.10;;
16033;SDS011;8121;51.418;6.998;2023-04-03T01:08:51;2.90;;;1.93;;
16033;SDS011;8121;51.418;6.998;2023-04-03T01:18:53;10.03;;;4.07;;
16033;SDS011;8121;51.418;6.998;2023-04-03T01:28:58;2.73;;;2.53;;
16033;SDS011;8121;51.418;6.998;2023-04-03T01:39:01;3.97;;;3.20;;
16033;SDS011;8121;51.418;6.998;2023-04-03T01:49:03;4.80;;;4.03;;
16033;SDS011;8121;51.418;6.998;2023-04-03T01:59:06;3.23;;;2.93;;
16033;SDS011;8121;51.418;6.998;2023-04-03T02:09:07;7.23;;;3.57;;
16033;SDS011;8121;51.418;6.998;2023-04-03T02:19:10;4.40;;;3.40;;
16033;SDS011;8121;51.418;6.998;2023-04-03T02:29:12;3.20;;;2.90;;
16033;SDS011;8121;51.418;6.998;2023-04-03T02:39:15;4.13;;;3.37;;
16033;SDS011;8121;51.418;6.998;2023-04-03T02:49:16;2.20;;;2.00;;
16033;SDS011;8121;51.418;6.998;2023-04-03T02:59:20;3.30;;;2.63;;
16033;SDS011;8121;51.418;6.998;2023-04-03T03:09:21;5.40;;;2.27;;
16033;SDS011;8121;51.418;6.998;2023-04-03T03:19:24;5.50;;;2.60;;
16033;SDS011;8121;51.418;6.998;2023-04-03T03:29:26;2.60;;;2.20;;
16033;SDS011;8121;51.418;6.998;2023-04-03T03:39:29;2.87;;;2.40;;
16033;SDS011;8121;51.418;6.998;2023-04-03T03:49:30;2.40;;;1.67;;
16033;SDS011;8121;51.418;6.998;2023-04-03T03:59:33;2.17;;;1.90;;
16033;SDS011;8121;51.418;6.998;2023-04-03T04:09:35;4.90;;;1.90;;
16033;SDS011;8121;51.418;6.998;2023-04-03T04:19:38;4.53;;;2.33;;
16033;SDS011;8121;51.418;6.998;2023-04-03T04:29:39;3.30;;;1.60;;
16033;SDS011;8121;51.418;6.998;2023-04-03T04:39:42;2.90;;;1.43;;
16033;SDS011;8121;51.418;6.998;2023-04-03T04:49:43;4.40;;;2.37;;
16033;SDS011;8121;51.418;6.998;2023-04-03T04:59:48;1.40;;;1.30;;
16033;SDS011;8121;51.418;6.998;2023-04-03T05:09:50;4.90;;;1.90;;
16033;SDS011;8121;51.418;6.998;2023-04-03T05:19:53;3.23;;;1.80;;
16033;SDS011;8121;51.418;6.998;2023-04-03T05:29:54;10.23;;;1.80;;
16033;SDS011;8121;51.418;6.998;2023-04-03T05:39:57;7.63;;;2.73;;
16033;SDS011;8121;51.418;6.998;2023-04-03T05:49:59;2.50;;;1.63;;
16033;SDS011;8121;51.418;6.998;2023-04-03T06:00:03;6.90;;;1.40;;
16033;SDS011;8121;51.418;6.998;2023-04-03T06:10:06;4.97;;;2.00;;
16033;SDS011;8121;51.418;6.998;2023-04-03T06:20:11;1.50;;;1.40;;
16033;SDS011;8121;51.418;6.998;2023-04-03T06:30:13;5.03;;;2.20;;
16033;SDS011;8121;51.418;6.998;2023-04-03T06:40:18;1.47;;;1.37;;
16033;SDS011;8121;51.418;6.998;2023-04-03T06:50:23;1.60;;;1.50;;
16033;SDS011;8121;51.418;6.998;2023-04-03T07:00:25;4.90;;;2.43;;
16033;SDS011;8121;51.418;6.998;2023-04-03T07:10:27;3.30;;;1.47;;
16033;SDS011;8121;51.418;6.998;2023-04-03T07:20:30;2.50;;;1.60;;
16033;SDS011;8121;51.418;6.998;2023-04-03T07:30:32;2.50;;;2.17;;
16033;SDS011;8121;51.418;6.998;2023-04-03T07:40:35;4.80;;;2.20;;
16033;SDS011;8121;51.418;6.998;2023-04-03T07:50:39;5.50;;;1.90;;
16033;SDS011;8121;51.418;6.998;2023-04-03T08:00:42;2.50;;;1.10;;
16033;SDS011;8121;51.418;6.998;2023-04-03T08:10:47;4.00;;;2.33;;
16033;SDS011;8121;51.418;6.998;2023-04-03T08:20:51;6.73;;;1.53;;
16033;SDS011;8121;51.418;6.998;2023-04-03T08:30:54;1.30;;;1.07;;
16033;SDS011;8121;51.418;6.998;2023-04-03T08:41:00;4.00;;;1.40;;
16033;SDS011;8121;51.418;6.998;2023-04-03T08:51:08;5.47;;;1.50;;
16033;SDS011;8121;51.418;6.998;2023-04-03T09:01:19;3.80;;;1.70;;
16033;SDS011;8121;51.418;6.998;2023-04-03T09:11:23;1.37;;;1.27;;
16033;SDS011;8121;51.418;6.998;2023-04-03T09:21:30;2.80;;;1.73;;
16033;SDS011;8121;51.418;6.998;2023-04-03T09:42:30;7.50;;;1.00;;
16033;SDS011;8121;51.418;6.998;2023-04-03T09:52:41;7.63;;;1.10;;
16033;SDS011;8121;51.418;6.998;2023-04-03T10:02:45;1.67;;;1.47;;
16033;SDS011;8121;51.418;6.998;2023-04-03T10:13:03;1.50;;;1.13;;
16033;SDS011;8121;51.418;6.998;2023-04-03T10:23:14;1.53;;;0.90;;
16033;SDS011;8121;51.418;6.998;2023-04-03T10:33:20;1.53;;;1.00;;
16033;SDS011;8121;51.418;6.998;2023-04-03T10:43:33;3.10;;;1.40;;
16033;SDS011;8121;51.418;6.998;2023-04-03T10:53:39;2.80;;;1.00;;
16033;SDS011;8121;51.418;6.998;2023-04-03T11:03:44;4.47;;;1.57;;
16033;SDS011;8121;51.418;6.998;2023-04-03T11:13:49;0.90;;;0.90;;
16033;SDS011;8121;51.418;6.998;2023-04-03T11:23:57;5.93;;;1.60;;
16033;SDS011;8121;51.418;6.998;2023-04-03T11:34:02;1.70;;;1.40;;
16033;SDS011;8121;51.418;6.998;2023-04-03T11:54:50;1.20;;;1.00;;
16033;SDS011;8121;51.418;6.998;2023-04-03T12:25:53;3.13;;;1.90;;
16033;SDS011;8121;51.418;6.998;2023-04-03T12:36:05;1.20;;;1.07;;
16033;SDS011;8121;51.418;6.998;2023-04-03T12:46:11;1.17;;;1.07;;
16033;SDS011;8121;51.418;6.998;2023-04-03T12:56:20;0.80;;;0.80;;
16033;SDS011;8121;51.418;6.998;2023-04-03T13:06:26;1.30;;;1.20;;
16033;SDS011;8121;51.418;6.998;2023-04-03T13:16:33;1.07;;;0.90;;
16033;SDS011;8121;51.418;6.998;2023-04-03T13:26:35;1.50;;;0.80;;
16033;SDS011;8121;51.418;6.998;2023-04-03T13:36:39;4.67;;;2.03;;
16033;SDS011;8121;51.418;6.998;2023-04-03T13:46:42;1.00;;;0.90;;
16033;SDS011;8121;51.418;6.998;2023-04-03T13:56:45;1.20;;;1.10;;
16033;SDS011;8121;51.418;6.998;2023-04-03T14:06:47;2.43;;;1.20;;
16033;SDS011;8121;51.418;6.998;2023-04-03T14:16:53;1.70;;;1.17;;
16033;SDS011;8121;51.418;6.998;2023-04-03T14:26:57;2.93;;;1.00;;
16033;SDS011;8121;51.418;6.998;2023-04-03T14:37:01;2.90;;;1.20;;
16033;SDS011;8121;51.418;6.998;2023-04-03T14:47:03;2.73;;;1.20;;
16033;SDS011;8121;51.418;6.998;2023-04-03T14:57:08;1.30;;;0.97;;
16033;SDS011;8121;51.418;6.998;2023-04-03T15:07:10;0.93;;;0.87;;
16033;SDS011;8121;51.418;6.998;2023-04-03T15:17:24;3.53;;;1.50;;
16033;SDS011;8121;51.418;6.998;2023-04-03T15:27:26;2.70;;;1.10;;
16033;SDS011;8121;51.418;6.998;2023-04-03T15:37:30;1.90;;;1.00;;
16033;SDS011;8121;51.418;6.998;2023-04-03T15:47:32;18.43;;;3.13;;
16033;SDS011;8121;51.418;6.998;2023-04-03T15:57:35;5.70;;;1.23;;
16033;SDS011;8121;51.418;6.998;2023-04-03T16:07:37;1.30;;;1.20;;
16033;SDS011;8121;51.418;6.998;2023-04-03T16:17:41;0.83;;;0.83;;
16033;SDS011;8121;51.418;6.998;2023-04-03T16:27:43;5.13;;;1.20;;
16033;SDS011;8121;51.418;6.998;2023-04-03T16:37:46;1.30;;;1.20;;
16033;SDS011;8121;51.418;6.998;2023-04-03T16:47:48;4.90;;;1.10;;
16033;SDS011;8121;51.418;6.998;2023-04-03T16:57:51;2.30;;;1.10;;
16033;SDS011;8121;51.418;6.998;2023-04-03T17:07:54;5.93;;;1.90;;
16033;SDS011;8121;51.418;6.998;2023-04-03T17:17:57;4.50;;;2.17;;
16033;SDS011;8121;51.418;6.998;2023-04-03T17:27:59;3.30;;;1.00;;
16033;SDS011;8121;51.418;6.998;2023-04-03T17:38:03;1.13;;;1.00;;
16033;SDS011;8121;51.418;6.998;2023-04-03T17:48:18;0.93;;;0.90;;
16033;SDS011;8121;51.418;6.998;2023-04-03T17:58:34;4.53;;;1.33;;
16033;SDS011;8121;51.418;6.998;2023-04-03T18:19:38;1.23;;;1.13;;
16033;SDS011;8121;51.418;6.998;2023-04-03T18:30:02;3.90;;;1.30;;
16033;SDS011;8121;51.418;6.998;2023-04-03T18:40:31;1.00;;;0.70;;
16033;SDS011;8121;51.418;6.998;2023-04-03T18:50:33;1.17;;;1.07;;
16033;SDS011;8121;51.418;6.998;2023-04-03T19:00:36;6.00;;;1.10;;
16033;SDS011;8121;51.418;6.998;2023-04-03T19:10:38;1.90;;;0.93;;
16033;SDS011;8121;51.418;6.998;2023-04-03T19:20:41;2.50;;;0.67;;
16033;SDS011;8121;51.418;6.998;2023-04-03T19:30:43;7.03;;;1.43;;
16033;SDS011;8121;51.418;6.998;2023-04-03T19:40:48;1.03;;;1.03;;
16033;SDS011;8121;51.418;6.998;2023-04-03T19:50:50;1.70;;;1.10;;
16033;SDS011;8121;51.418;6.998;2023-04-03T20:00:52;1.00;;;0.90;;
16033;SDS011;8121;51.418;6.998;2023-04-03T20:10:54;1.53;;;1.17;;
16033;SDS011;8121;51.418;6.998;2023-04-03T20:20:58;1.73;;;1.07;;
16033;SDS011;8121;51.418;6.998;2023-04-03T20:31:00;1.50;;;0.83;;
16033;SDS011;8121;51.418;6.998;2023-04-03T20:41:04;2.03;;;1.37;;
16033;SDS011;8121;51.418;6.998;2023-04-03T20:51:08;1.93;;;1.20;;
16033;SDS011;8121;51.418;6.998;2023-04-03T21:01:15;1.53;;;1.30;;
16033;SDS011;8121;51.418;6.998;2023-04-03T21:22:16;1.87;;;1.30;;
16033;SDS011;8121;51.418;6.998;2023-04-03T21:32:17;2.10;;;1.30;;
16033;SDS011;8121;51.418;6.998;2023-04-03T21:42:21;7.67;;;1.50;;
16033;SDS011;8121;51.418;6.998;2023-04-03T21:52:23;1.10;;;1.00;;
16033;SDS011;8121;51.418;6.998;2023-04-03T22:02:26;1.20;;;0.77;;
16033;SDS011;8121;51.418;6.998;2023-04-03T22:12:30;0.90;;;0.90;;
16033;SDS011;8121;51.418;6.998;2023-04-03T22:22:34;1.10;;;1.00;;
16033;SDS011;8121;51.418;6.998;2023-04-03T22:32:36;0.80;;;0.80;;
16033;SDS011;8121;51.418;6.998;2023-04-03T22:42:44;1.57;;;1.20;;
16033;SDS011;8121;51.418;6.998;2023-04-03T22:53:00;0.93;;;0.93;;
16033;SDS011;8121;51.418;6.998;2023-04-03T23:03:04;1.53;;;0.93;;
16033;SDS011;8121;51.418;6.998;2023-04-03T23:13:27;1.03;;;0.93;;
16033;SDS011;8121;51.418;6.998;2023-04-03T23:23:33;1.37;;;1.03;;
16033;SDS011;8121;51.418;6.998;2023-04-03T23:33:51;1.13;;;1.07;;
16033;SDS011;8121;51.418;6.998;2023-04-03T23:43:54;1.43;;;0.80;;
16033;SDS011;8121;51.418;6.998;2023-04-03T23:54:04;1.57;;;0.90;;
